Time;durP1;ratioP1;P1;durP2;ratioP2;P2;SDS_P1;SDS_P2;PMS_P1;PMS_P2;Temp;Humidity;BMP_temperature;BMP_pressure;BME280_temperature;BME280_humidity;BME280_pressure;Samples;Min_cycle;Max_cycle;Signal;HPM_P1;HPM_P2
2023/08/05 00:03:12;;;;;;;;;;;;;;;17.46;59.65;100650.02;105416;1301;59333;-90
2023/08/05 00:09:17;;;;;;;;;;;;;;;17.39;59.37;100648.20;105578;1298;73407;-89
2023/08/05 00:12:43;;;;;;;;;;;;;;;17.32;59.51;100650.63;105603;1298;67405;-88
2023/08/05 00:16:09;;;;;;;;;;;;;;;17.25;59.71;100644.33;105543;1299;71498;-88
2023/08/05 00:19:35;;;;;;;;;;;;;;;17.24;59.74;100644.17;105595;1299;58936;-88
2023/08/05 00:23:01;;;;;;;;;;;;;;;17.24;59.82;100646.12;105557;1299;59358;-88
2023/08/05 00:26:27;;;;;;;;;;;;;;;17.18;59.85;100640.95;105590;1299;73425;-89
2023/08/05 00:32:36;;;;;;;;;;;;;;;17.15;59.94;100650.16;105486;1300;72063;-89
2023/08/05 00:36:00;;;;;;;;;;;;;;;17.10;60.01;100655.42;105324;1302;59076;-89
2023/08/05 00:39:26;;;;;;;;;;;;;;;17.07;59.96;100661.81;105333;1302;59290;-89
2023/08/05 00:42:53;;;;;;;;;;;;;;;17.01;60.00;100665.56;105368;1302;74287;-89
2023/08/05 00:46:22;;;;;;;;;;;;;;;16.97;60.09;100664.88;105334;1302;67319;-89
2023/08/05 00:49:52;;;;;;;;;;;;;;;16.93;60.20;100669.23;105064;1305;70974;-89
2023/08/05 00:53:22;;;;;;;;;;;;;;;16.87;60.11;100675.69;105048;1305;59201;-89
2023/08/05 00:56:44;;;;;;;;;;;;;;;16.86;60.15;100682.00;104909;1307;59012;-89
2023/08/05 01:00:12;;;;;;;;;;;;;;;16.82;60.10;100682.01;104937;1307;73412;-90
2023/08/05 01:03:38;;;;;;;;;;;;;;;16.77;60.15;100684.48;104981;1307;68962;-91
2023/08/05 01:12:15;;;;;;;;;;;;;;;16.64;60.42;100669.19;105510;1299;58965;-88
2023/08/05 01:15:41;;;;;;;;;;;;;;;16.58;60.45;100667.33;105477;1301;74253;-90
2023/08/05 01:19:07;;;;;;;;;;;;;;;16.52;60.48;100666.66;105506;1302;67390;-90
2023/08/05 01:22:34;;;;;;;;;;;;;;;16.49;60.46;100660.52;105484;1302;71293;-90
2023/08/05 01:26:00;;;;;;;;;;;;;;;16.45;60.57;100661.02;105494;1301;58877;-90
2023/08/05 01:29:26;;;;;;;;;;;;;;;16.45;60.62;100664.85;105497;1301;59230;-91
2023/08/05 01:32:53;;;;;;;;;;;;;;;16.44;60.73;100655.34;105442;1302;73219;-90
2023/08/05 01:36:19;;;;;;;;;;;;;;;16.43;60.71;100657.48;105552;1301;68665;-90
2023/08/05 01:39:47;;;;;;;;;;;;;;;16.38;60.87;100653.14;105509;1301;71192;-89
2023/08/05 01:56:37;;;;;;;;;;;;;;;16.29;60.96;100638.02;83887;1302;58850;-93
2023/08/05 02:00:09;;;;;;;;;;;;;;;16.29;60.98;100639.23;105402;1301;58727;-89
2023/08/05 02:03:36;;;;;;;;;;;;;;;16.28;60.96;100644.64;104638;1308;74634;-88
2023/08/05 02:07:02;;;;;;;;;;;;;;;16.27;61.08;100645.93;104641;1308;69143;-89
2023/08/05 02:10:28;;;;;;;;;;;;;;;16.26;61.08;100642.14;104081;1314;71189;-89
2023/08/05 02:13:55;;;;;;;;;;;;;;;16.26;61.15;100637.44;104061;1314;59443;-89
2023/08/05 02:17:22;;;;;;;;;;;;;;;16.27;61.16;100638.80;103728;1317;59398;-89
2023/08/05 02:20:49;;;;;;;;;;;;;;;16.25;61.21;100634.88;103705;1318;73282;-89
2023/08/05 02:24:15;;;;;;;;;;;;;;;16.25;61.28;100634.52;103280;1324;67502;-89
2023/08/05 02:27:41;;;;;;;;;;;;;;;16.26;61.35;100633.09;103288;1325;71724;-89
2023/08/05 02:33:44;;;;;;;;;;;;;;;16.22;61.40;100637.04;105495;1301;60060;-89
2023/08/05 02:37:10;;;;;;;;;;;;;;;16.20;61.46;100639.05;105465;1301;73451;-88
2023/08/05 02:40:37;;;;;;;;;;;;;;;16.21;61.58;100641.98;105504;1301;68871;-88
2023/08/05 02:44:03;;;;;;;;;;;;;;;16.18;61.57;100646.98;105525;1301;71781;-88
2023/08/05 02:47:30;;;;;;;;;;;;;;;16.17;61.69;100645.27;105097;1305;59049;-89
2023/08/05 02:50:56;;;;;;;;;;;;;;;16.17;61.60;100639.70;105096;1305;59231;-88
2023/08/05 02:54:25;;;;;;;;;;;;;;;16.08;61.53;100635.91;105101;1305;74296;-89
2023/08/05 02:57:52;;;;;;;;;;;;;;;16.02;61.67;100635.25;105069;1305;68570;-88
2023/08/05 03:01:19;;;;;;;;;;;;;;;16.03;61.75;100632.96;105026;1308;73350;-89
2023/08/05 03:04:45;;;;;;;;;;;;;;;15.97;61.78;100637.19;105041;1308;59303;-89
2023/08/05 03:08:11;;;;;;;;;;;;;;;15.93;61.75;100639.96;105087;1304;59965;-89
2023/08/05 03:11:18;;;;;;;;;;;;;;;15.92;61.80;100640.70;105524;1300;74897;-89
2023/08/05 03:14:45;;;;;;;;;;;;;;;15.89;61.86;100639.55;105506;1302;67461;-89
2023/08/05 03:31:08;;;;;;;;;;;;;;;15.80;61.92;100646.51;105466;1301;72459;-89
2023/08/05 03:34:34;;;;;;;;;;;;;;;15.77;61.97;100651.69;105497;1302;59499;-89
2023/08/05 03:38:00;;;;;;;;;;;;;;;15.73;61.96;100661.71;105577;1299;60819;-88
2023/08/05 03:41:26;;;;;;;;;;;;;;;15.69;62.17;100670.89;105542;1299;73556;-89
2023/08/05 03:44:53;;;;;;;;;;;;;;;15.69;62.06;100676.98;105553;1300;68699;-88
2023/08/05 03:48:19;;;;;;;;;;;;;;;15.68;62.18;100683.11;104930;1307;74133;-89
2023/08/05 03:51:46;;;;;;;;;;;;;;;15.68;62.19;100676.86;104879;1307;58855;-89
2023/08/05 03:55:12;;;;;;;;;;;;;;;15.70;62.22;100675.74;104910;1306;59229;-88
2023/08/05 03:58:38;;;;;;;;;;;;;;;15.71;62.25;100668.90;104850;1308;74818;-89
2023/08/05 04:02:05;;;;;;;;;;;;;;;15.74;62.24;100667.77;105006;1306;69379;-88
2023/08/05 04:05:31;;;;;;;;;;;;;;;15.74;62.35;100662.56;104383;1311;72756;-88
2023/08/05 04:08:57;;;;;;;;;;;;;;;15.78;62.39;100665.71;104389;1311;58937;-89
2023/08/05 04:12:28;;;;;;;;;;;;;;;15.77;62.33;100668.88;104328;1314;60067;-89
2023/08/05 04:15:56;;;;;;;;;;;;;;;15.68;62.48;100672.15;104011;1316;73346;-89
2023/08/05 04:19:20;;;;;;;;;;;;;;;15.70;62.59;100665.13;104038;1316;69155;-89
2023/08/05 04:22:49;;;;;;;;;;;;;;;15.79;62.65;100661.48;104025;1315;71283;-89
2023/08/05 04:26:14;;;;;;;;;;;;;;;15.87;62.68;100655.97;104434;1311;59061;-89
2023/08/05 04:29:42;;;;;;;;;;;;;;;15.95;62.79;100659.52;104448;1311;59524;-89
2023/08/05 04:38:24;;;;;;;;;;;;;;;16.14;62.81;100645.39;105522;1299;71987;-89
2023/08/05 04:41:50;;;;;;;;;;;;;;;16.22;62.92;100638.27;105540;1299;59686;-89
2023/08/05 04:45:17;;;;;;;;;;;;;;;16.26;62.98;100646.48;105585;1299;59433;-89
2023/08/05 04:48:43;;;;;;;;;;;;;;;16.30;63.07;100652.58;105000;1307;75424;-89
2023/08/05 04:52:12;;;;;;;;;;;;;;;16.39;63.18;100655.03;105002;1306;67374;-89
2023/08/05 04:55:36;;;;;;;;;;;;;;;16.39;63.12;100660.25;104015;1315;71297;-89
2023/08/05 04:59:03;;;;;;;;;;;;;;;16.40;63.25;100665.75;103931;1316;59144;-89
2023/08/05 05:02:29;;;;;;;;;;;;;;;16.45;63.35;100656.86;103620;1320;60079;-89
2023/08/05 05:05:27;;;;;;;;;;;;;;;16.56;63.37;100659.38;105520;1299;74097;-89
2023/08/05 05:08:54;;;;;;;;;;;;;;;16.66;63.54;100663.17;105491;1299;68463;-88
2023/08/05 05:12:19;;;;;;;;;;;;;;;16.78;63.39;100663.19;105570;1299;71467;-88
2023/08/05 05:15:54;;;;;;;;;;;;;;;16.88;63.49;100661.58;105566;1299;59479;-89
2023/08/05 05:19:22;;;;;;;;;;;;;;;17.00;63.59;100667.00;104953;1307;59205;-89
2023/08/05 05:22:49;;;;;;;;;;;;;;;17.13;63.63;100673.75;104234;1313;73592;-89
2023/08/05 05:26:15;;;;;;;;;;;;;;;17.26;63.58;100686.42;104258;1312;67264;-89
2023/08/05 05:29:20;;;;;;;;;;;;;;;17.35;63.64;100691.95;105602;1299;72675;-89
2023/08/05 05:32:45;;;;;;;;;;;;;;;17.43;63.80;100697.73;105622;1300;59423;-89
2023/08/05 05:36:13;;;;;;;;;;;;;;;17.49;63.62;100701.48;105600;1298;59025;-89
2023/08/05 05:39:40;;;;;;;;;;;;;;;17.60;63.79;100688.80;105639;1298;73205;-89
2023/08/05 05:43:12;;;;;;;;;;;;;;;17.74;63.83;100691.15;105648;1298;67411;-89
2023/08/05 05:46:14;;;;;;;;;;;;;;;17.85;63.86;100696.42;105572;1299;72422;-90
2023/08/05 06:02:31;;;;;;;;;;;;;;;18.60;63.80;100682.97;105465;1297;58497;-89
2023/08/05 06:08:38;;;;;;;;;;;;;;;18.78;63.91;100685.02;105464;1299;74197;-87
2023/08/05 06:12:05;;;;;;;;;;;;;;;18.92;63.93;100678.24;105389;1299;68605;-87
2023/08/05 06:15:30;;;;;;;;;;;;;;;19.04;63.88;100685.14;104718;1308;72198;-87
2023/08/05 06:18:54;;;;;;;;;;;;;;;19.11;63.89;100682.54;104901;1308;59080;-88
2023/08/05 06:22:19;;;;;;;;;;;;;;;19.21;63.83;100677.14;104467;1310;60023;-88
2023/08/05 06:25:43;;;;;;;;;;;;;;;19.27;63.96;100683.45;104395;1311;73525;-88
2023/08/05 06:29:08;;;;;;;;;;;;;;;19.38;63.88;100679.71;104510;1311;67299;-88
2023/08/05 06:32:32;;;;;;;;;;;;;;;19.50;63.80;100668.98;104455;1310;72421;-89
2023/08/05 06:35:57;;;;;;;;;;;;;;;19.60;63.87;100664.10;104487;1310;59737;-88
2023/08/05 06:39:23;;;;;;;;;;;;;;;19.71;63.85;100662.30;104520;1310;60767;-88
2023/08/05 06:42:50;;;;;;;;;;;;;;;19.81;63.93;100657.02;104502;1311;74739;-88
2023/08/05 06:46:12;;;;;;;;;;;;;;;19.93;64.01;100652.00;104406;1310;67747;-88
2023/08/05 06:49:36;;;;;;;;;;;;;;;20.10;63.95;100653.15;104187;1311;71452;-89
2023/08/05 06:52:41;;;;;;;;;;;;;;;20.22;63.78;100653.40;105383;1296;59633;-88
2023/08/05 06:56:06;;;;;;;;;;;;;;;20.26;63.77;100658.72;104787;1308;60313;-89
2023/08/05 06:59:10;;;;;;;;;;;;;;;20.32;63.77;100664.86;104643;1308;74357;-85
2023/08/05 07:01:58;;;;;;;;;;;;;;;20.33;63.87;100662.51;104541;1308;67335;-85
2023/08/05 07:04:42;;;;;;;;;;;;;;;20.36;63.91;100663.92;104359;1308;71503;-85
2023/08/05 07:07:26;;;;;;;;;;;;;;;20.38;63.74;100673.11;104282;1309;313775;-85
2023/08/05 07:10:12;;;;;;;;;;;;;;;20.42;63.82;100675.55;104515;1308;60000;-85
2023/08/05 07:13:01;;;;;;;;;;;;;;;20.44;63.84;100679.11;104527;1308;73334;-85
2023/08/05 07:15:45;;;;;;;;;;;;;;;20.42;63.82;100679.02;104425;1308;67323;-85
2023/08/05 07:18:29;;;;;;;;;;;;;;;20.44;63.70;100682.42;104495;1307;71322;-85
2023/08/05 07:21:16;;;;;;;;;;;;;;;20.48;63.76;100674.84;104489;1308;59395;-85
2023/08/05 07:23:59;;;;;;;;;;;;;;;20.57;63.82;100674.19;104422;1308;59194;-85
2023/08/05 07:26:46;;;;;;;;;;;;;;;20.67;63.85;100671.13;104647;1308;73233;-85
2023/08/05 07:29:34;;;;;;;;;;;;;;;20.70;63.59;100668.54;104524;1314;68734;-86
2023/08/05 07:32:36;;;;;;;;;;;;;;;20.75;63.60;100667.71;104877;1302;71217;-85
2023/08/05 07:35:42;;;;;;;;;;;;;;;20.81;63.63;100671.36;104976;1301;59321;-86
2023/08/05 07:38:57;;;;;;;;;;;;;;;20.85;63.53;100665.52;105335;1301;59735;-86
2023/08/05 07:42:03;;;;;;;;;;;;;;;20.89;63.75;100662.66;105337;1302;73418;-85
2023/08/05 07:44:52;;;;;;;;;;;;;;;20.94;63.55;100662.19;105253;1302;67223;-85
2023/08/05 07:47:41;;;;;;;;;;;;;;;20.95;63.53;100661.61;105191;1303;72693;-85
2023/08/05 07:50:35;;;;;;;;;;;;;;;20.98;63.50;100664.76;105052;1303;59088;-85
2023/08/05 07:53:23;;;;;;;;;;;;;;;21.01;63.53;100666.52;105225;1301;59581;-85
2023/08/05 07:56:14;;;;;;;;;;;;;;;21.03;63.52;100662.05;105138;1302;74522;-85
2023/08/05 07:59:01;;;;;;;;;;;;;;;21.04;63.46;100650.57;105154;1302;68645;-85
2023/08/05 08:01:47;;;;;;;;;;;;;;;21.04;63.61;100647.73;105130;1304;71280;-85
2023/08/05 08:04:34;;;;;;;;;;;;;;;21.06;63.51;100643.81;105041;1302;59395;-85
2023/08/05 08:07:47;;;;;;;;;;;;;;;21.06;63.44;100638.35;105165;1302;58949;-86
2023/08/05 08:10:53;;;;;;;;;;;;;;;21.07;63.44;100633.38;105339;1302;72296;-86
2023/08/05 08:14:19;;;;;;;;;;;;;;;21.07;63.49;100630.22;105190;1301;67919;-86
2023/08/05 08:17:09;;;;;;;;;;;;;;;21.07;63.63;100630.73;105287;1301;72099;-85
2023/08/05 08:19:56;;;;;;;;;;;;;;;21.08;63.70;100632.95;105127;1302;59444;-85
2023/08/05 08:22:41;;;;;;;;;;;;;;;21.11;63.49;100618.09;105284;1301;59132;-85
2023/08/05 08:25:28;;;;;;;;;;;;;;;21.12;63.57;100606.25;105168;1301;76396;-85
2023/08/05 08:28:14;;;;;;;;;;;;;;;21.15;63.55;100603.45;105245;1301;66790;-85
2023/08/05 08:31:00;;;;;;;;;;;;;;;21.16;63.49;100603.42;105199;1302;71339;-85
2023/08/05 08:33:46;;;;;;;;;;;;;;;21.16;63.39;100600.27;105318;1302;59545;-85
2023/08/05 08:36:40;;;;;;;;;;;;;;;21.16;63.38;100597.98;105195;1301;60030;-85
2023/08/05 08:39:35;;;;;;;;;;;;;;;21.17;63.41;100602.84;105274;1302;74678;-85
2023/08/05 08:42:21;;;;;;;;;;;;;;;21.19;63.41;100607.80;105242;1302;68053;-85
2023/08/05 08:45:16;;;;;;;;;;;;;;;21.22;63.50;100608.52;105191;1302;71490;-86
2023/08/05 08:48:22;;;;;;;;;;;;;;;21.26;63.50;100604.40;97921;1302;10001396;-86
2023/08/05 08:51:25;;;;;;;;;;;;;;;21.30;63.46;100606.09;105199;1302;73190;-86
2023/08/05 08:54:13;;;;;;;;;;;;;;;21.36;63.37;100606.23;105248;1302;68402;-85
2023/08/05 08:56:59;;;;;;;;;;;;;;;21.40;63.54;100601.23;105198;1302;72487;-85
2023/08/05 08:59:45;;;;;;;;;;;;;;;21.45;63.27;100601.60;105166;1301;59093;-85
2023/08/05 09:02:32;;;;;;;;;;;;;;;21.54;63.28;100604.63;105303;1302;59064;-85
2023/08/05 09:05:19;;;;;;;;;;;;;;;21.63;63.29;100603.16;105252;1301;73449;-85
2023/08/05 09:08:05;;;;;;;;;;;;;;;21.74;63.26;100600.37;105279;1305;68353;-85
2023/08/05 09:10:51;;;;;;;;;;;;;;;21.87;63.11;100606.21;105279;1303;72573;-85
2023/08/05 09:13:38;;;;;;;;;;;;;;;22.00;63.13;100613.42;105224;1302;60828;-85
2023/08/05 09:16:26;;;;;;;;;;;;;;;22.12;62.90;100617.61;105220;1302;59084;-85
2023/08/05 09:19:13;;;;;;;;;;;;;;;22.21;62.86;100618.10;105295;1302;73683;-86
2023/08/05 09:22:05;;;;;;;;;;;;;;;22.33;62.75;100615.89;105256;1302;68214;-85
2023/08/05 09:25:00;;;;;;;;;;;;;;;22.50;62.90;100617.09;105324;1301;72513;-85
2023/08/05 09:27:47;;;;;;;;;;;;;;;22.71;62.83;100610.78;105226;1301;59063;-87
2023/08/05 09:30:34;;;;;;;;;;;;;;;22.89;62.68;100614.11;105266;1302;59286;-85
2023/08/05 09:33:41;;;;;;;;;;;;;;;23.07;62.59;100609.91;105284;1302;74567;-86
2023/08/05 09:36:30;;;;;;;;;;;;;;;23.09;62.28;100600.07;105237;1301;67796;-86
2023/08/05 09:39:47;;;;;;;;;;;;;;;23.11;62.24;100595.05;105243;1301;72617;-86
2023/08/05 09:42:54;;;;;;;;;;;;;;;23.13;62.09;100597.73;105175;1302;59149;-86
2023/08/05 09:46:02;;;;;;;;;;;;;;;23.18;62.15;100602.98;105121;1302;59030;-86
2023/08/05 09:49:06;;;;;;;;;;;;;;;23.26;61.95;100604.21;105240;1302;74610;-86
2023/08/05 09:51:56;;;;;;;;;;;;;;;23.29;61.91;100607.52;105257;1302;67378;-85
2023/08/05 09:54:52;;;;;;;;;;;;;;;23.34;61.85;100607.84;105176;1302;71429;-85
2023/08/05 09:57:47;;;;;;;;;;;;;;;23.42;61.67;100597.98;105266;1302;60366;-85
2023/08/05 10:00:50;;;;;;;;;;;;;;;23.51;61.60;100594.18;105224;1302;59063;-86
2023/08/05 10:03:45;;;;;;;;;;;;;;;23.59;61.52;100593.66;105055;1303;73471;-85
2023/08/05 10:06:48;;;;;;;;;;;;;;;23.65;61.54;100591.11;105180;1302;67350;-86
2023/08/05 10:09:35;;;;;;;;;;;;;;;23.74;61.36;100586.42;105178;1302;72268;-86
2023/08/05 10:12:24;;;;;;;;;;;;;;;23.85;61.32;100585.98;105233;1303;59119;-86
2023/08/05 10:15:17;;;;;;;;;;;;;;;23.93;61.25;100584.14;105311;1302;59265;-85
2023/08/05 10:18:11;;;;;;;;;;;;;;;23.93;61.06;100586.38;105317;1302;74367;-86
2023/08/05 10:20:57;;;;;;;;;;;;;;;23.92;60.92;100581.23;105141;1302;67541;-85
2023/08/05 10:24:03;;;;;;;;;;;;;;;23.88;60.92;100581.13;105210;1302;72710;-86
2023/08/05 10:27:29;;;;;;;;;;;;;;;23.80;60.72;100582.44;105086;1304;59919;-85
2023/08/05 10:30:16;;;;;;;;;;;;;;;23.69;60.78;100590.30;105166;1302;58906;-86
2023/08/05 10:33:04;;;;;;;;;;;;;;;23.62;60.80;100589.38;105080;1305;74344;-86
2023/08/05 10:36:00;;;;;;;;;;;;;;;23.57;60.76;100585.52;105148;1303;67351;-86
2023/08/05 10:38:46;;;;;;;;;;;;;;;23.49;60.50;100583.77;105123;1302;70820;-85
2023/08/05 10:41:39;;;;;;;;;;;;;;;23.38;60.53;100579.44;104974;1302;59346;-85
2023/08/05 10:44:34;;;;;;;;;;;;;;;23.30;60.55;100578.77;105057;1302;59496;-85
2023/08/05 10:47:24;;;;;;;;;;;;;;;23.22;60.42;100576.33;105119;1302;74456;-85
2023/08/05 11:03:17;;;;;;;;;;;;;;;22.94;60.19;100577.39;105326;1302;66340;-90
2023/08/05 11:11:38;;;;;;;;;;;;;;;22.92;60.19;100577.54;83745;1302;59432;-92
2023/08/05 11:55:00;;;;;;;;;;;;;;;23.05;59.62;100560.06;104782;1301;73425;-89
2023/08/05 11:58:27;;;;;;;;;;;;;;;23.06;59.55;100559.98;105368;1300;68567;-89
2023/08/05 12:01:55;;;;;;;;;;;;;;;23.07;59.50;100563.95;104494;1308;71651;-90
2023/08/05 12:07:26;;;;;;;;;;;;;;;23.11;59.65;100560.02;105322;1298;60137;-89
2023/08/05 12:10:53;;;;;;;;;;;;;;;23.11;59.59;100560.70;104975;1306;73526;-89
2023/08/05 12:14:20;;;;;;;;;;;;;;;23.07;59.99;100556.79;104898;1305;68422;-89
2023/08/05 12:17:47;;;;;;;;;;;;;;;23.07;59.92;100555.19;104381;1311;71228;-88
2023/08/05 13:21:02;;;;;;;;;;;;;;;22.12;61.14;100570.38;104919;1304;73246;-89
2023/08/05 13:45:13;;;;;;;;;;;;;;;21.89;61.39;100557.27;105285;1304;59401;-89
2023/08/05 13:48:40;;;;;;;;;;;;;;;21.84;61.50;100558.17;104466;1310;73342;-89
2023/08/05 14:15:28;;;;;;;;;;;;;;;21.34;61.81;100538.65;105277;1302;73220;-90
2023/08/05 14:44:09;;;;;;;;;;;;;;;20.86;62.63;100518.44;105388;1302;67610;-91
2023/08/05 14:49:52;;;;;;;;;;;;;;;20.76;62.60;100518.23;105345;1301;59259;-89
2023/08/05 14:53:18;;;;;;;;;;;;;;;20.69;62.80;100518.98;104569;1307;59211;-89
2023/08/05 14:56:44;;;;;;;;;;;;;;;20.64;62.86;100516.27;104532;1310;74135;-89
2023/08/05 15:00:11;;;;;;;;;;;;;;;20.61;63.01;100518.08;104481;1311;67659;-89
2023/08/05 15:03:37;;;;;;;;;;;;;;;20.54;62.89;100525.64;104274;1311;71197;-89
2023/08/05 15:09:38;;;;;;;;;;;;;;;20.43;63.10;100519.84;105268;1297;59376;-89
2023/08/05 15:13:04;;;;;;;;;;;;;;;20.39;63.11;100519.89;104937;1305;73658;-89
2023/08/05 15:16:30;;;;;;;;;;;;;;;20.34;63.28;100522.05;104933;1305;67180;-89
2023/08/05 15:19:57;;;;;;;;;;;;;;;20.31;63.32;100517.84;104790;1307;71928;-89
2023/08/05 15:23:23;;;;;;;;;;;;;;;20.28;63.24;100515.23;104968;1304;58985;-89
2023/08/05 15:26:50;;;;;;;;;;;;;;;20.24;63.63;100511.98;105019;1304;59531;-89
2023/08/05 15:30:16;;;;;;;;;;;;;;;20.19;63.52;100510.33;105029;1304;73535;-88
2023/08/05 15:33:43;;;;;;;;;;;;;;;20.14;63.69;100513.44;104297;1311;67410;-89
2023/08/05 15:37:10;;;;;;;;;;;;;;;20.12;63.70;100514.23;103866;1316;71661;-88
2023/08/05 15:40:36;;;;;;;;;;;;;;;20.08;63.78;100515.19;103885;1316;60155;-89
2023/08/05 15:44:02;;;;;;;;;;;;;;;20.04;63.88;100511.05;104037;1313;58948;-89
2023/08/05 15:47:29;;;;;;;;;;;;;;;19.99;63.83;100506.08;103762;1316;73534;-89
2023/08/05 15:50:55;;;;;;;;;;;;;;;19.94;63.92;100506.02;103845;1316;68666;-89
2023/08/05 15:54:21;;;;;;;;;;;;;;;19.90;63.99;100505.18;103851;1316;71509;-88
2023/08/05 15:57:51;;;;;;;;;;;;;;;19.85;64.13;100502.30;103841;1316;59212;-88
2023/08/05 16:01:17;;;;;;;;;;;;;;;19.81;64.29;100500.98;103610;1319;59401;-89
2023/08/05 16:04:43;;;;;;;;;;;;;;;19.76;64.27;100506.11;103449;1318;74899;-88
2023/08/05 16:08:10;;;;;;;;;;;;;;;19.74;64.28;100502.60;103495;1320;67466;-89
2023/08/05 16:11:36;;;;;;;;;;;;;;;19.69;64.30;100499.75;103980;1314;70489;-89
2023/08/05 16:15:03;;;;;;;;;;;;;;;19.65;64.40;100496.83;104418;1310;60399;-89
2023/08/05 16:18:29;;;;;;;;;;;;;;;19.58;64.54;100490.19;104781;1305;60272;-89
2023/08/05 16:21:55;;;;;;;;;;;;;;;19.53;64.53;100481.73;104900;1305;72212;-89
2023/08/05 16:25:22;;;;;;;;;;;;;;;19.47;64.49;100477.84;104940;1305;69183;-89
2023/08/05 16:28:50;;;;;;;;;;;;;;;19.41;64.74;100477.27;104963;1305;72466;-89
2023/08/05 16:32:15;;;;;;;;;;;;;;;19.37;64.74;100470.56;104954;1305;59350;-89
2023/08/05 16:35:41;;;;;;;;;;;;;;;19.30;64.78;100467.42;104966;1305;60030;-89
2023/08/05 16:39:08;;;;;;;;;;;;;;;19.26;64.87;100462.23;105143;1302;74639;-89
2023/08/05 16:42:34;;;;;;;;;;;;;;;19.22;64.98;100462.29;105276;1302;68698;-89
2023/08/05 16:46:00;;;;;;;;;;;;;;;19.18;64.98;100461.98;105265;1302;72502;-89
2023/08/05 16:49:26;;;;;;;;;;;;;;;19.14;65.14;100459.40;105313;1302;59352;-89
2023/08/05 16:52:53;;;;;;;;;;;;;;;19.08;65.15;100449.77;105264;1304;59399;-89
2023/08/05 16:56:22;;;;;;;;;;;;;;;19.01;65.30;100447.00;105344;1302;74375;-89
2023/08/05 17:00:08;;;;;;;;;;;;;;;;;;;;;
2023/08/05 17:05:26;;;;;;;;;;;;;;;18.92;65.38;100438.38;105387;1300;59117;-90
2023/08/05 17:08:53;;;;;;;;;;;;;;;18.91;65.48;100434.25;105365;1302;59319;-88
2023/08/05 17:12:09;;;;;;;;;;;;;;;18.89;65.46;100430.86;105336;1301;73408;-89
2023/08/05 17:15:34;;;;;;;;;;;;;;;18.87;65.53;100431.30;104965;1307;67514;-90
2023/08/05 17:19:00;;;;;;;;;;;;;;;18.85;65.68;100432.64;104952;1308;71357;-90
2023/08/05 17:22:27;;;;;;;;;;;;;;;18.83;65.85;100432.91;104979;1309;59089;-89
2023/08/05 17:25:54;;;;;;;;;;;;;;;18.79;65.80;100437.65;105052;1306;59105;-90
2023/08/05 17:29:21;;;;;;;;;;;;;;;18.77;65.89;100439.34;105056;1305;73795;-90
2023/08/05 17:32:50;;;;;;;;;;;;;;;18.75;65.91;100442.41;105026;1309;67229;-90
2023/08/05 17:36:16;;;;;;;;;;;;;;;18.74;65.98;100439.35;105004;1308;71444;-90
2023/08/05 17:39:20;;;;;;;;;;;;;;;18.72;66.02;100444.16;105480;1299;59221;-89
2023/08/05 17:42:47;;;;;;;;;;;;;;;18.71;66.17;100444.98;105472;1299;59077;-89
2023/08/05 18:11:26;;;;;;;;;;;;;;;18.50;66.72;100451.92;105340;1298;73773;-90
2023/08/05 19:05:05;;;;;;;;;;;;;;;18.21;67.51;100461.81;102074;1301;73399;-89
2023/08/05 19:10:36;;;;;;;;;;;;;;;18.18;67.61;100441.52;105425;1300;59187;-89
2023/08/05 19:14:02;;;;;;;;;;;;;;;18.18;67.58;100439.30;105464;1301;59395;-90
2023/08/05 19:17:10;;;;;;;;;;;;;;;18.15;67.77;100437.70;105326;1302;73186;-88
2023/08/05 19:20:36;;;;;;;;;;;;;;;18.14;67.62;100441.25;105303;1302;67482;-88
2023/08/05 19:31:45;;;;;;;;;;;;;;;18.11;67.65;100441.90;105380;1301;74394;-88
2023/08/05 19:35:12;;;;;;;;;;;;;;;18.08;67.86;100442.58;105369;1301;67313;-88
2023/08/05 19:38:38;;;;;;;;;;;;;;;18.05;67.84;100445.85;105457;1300;70326;-88
2023/08/05 19:42:04;;;;;;;;;;;;;;;17.98;67.82;100446.90;105392;1301;59085;-88
2023/08/05 19:45:30;;;;;;;;;;;;;;;17.94;67.95;100440.31;104631;1308;59206;-88
2023/08/05 19:56:37;;;;;;;;;;;;;;;17.86;68.00;100437.38;105299;1299;59798;-88
2023/08/05 20:00:05;;;;;;;;;;;;;;;17.83;68.16;100428.08;105251;1302;60006;-88
2023/08/05 20:03:30;;;;;;;;;;;;;;;17.78;68.20;100411.11;104618;1310;72897;-88
2023/08/05 20:06:57;;;;;;;;;;;;;;;17.75;68.26;100400.11;104650;1308;67570;-88
2023/08/05 20:10:23;;;;;;;;;;;;;;;17.74;68.30;100384.61;104715;1307;71247;-90
